ADDS METAR Data INFO
IDs: Format: Raw Decoded Include TAF

Data at: 1610 UTC 14 Aug 2018

KESC 141556Z AUTO 00000KT 10SM CLR 29/21 A2989 RMK AO2 SLP133 T02890206
KESC 141456Z AUTO 29006KT 10SM CLR 27/20 A2989 RMK AO2 SLP135 T02670200 58006
KESC 141356Z AUTO 28009KT 10SM FEW070 24/19 A2990 RMK AO2 SLP139 T02440189
KESC 141256Z AUTO 27007KT 10SM CLR 22/18 A2991 RMK AO2 SLP142 T02220183
KESC 141156Z AUTO 26005KT 10SM CLR 19/18 A2991 RMK AO2 SLP144 T01940178 10200 20172 52000
KESC 141056Z AUTO 27005KT 7SM CLR 18/17 A2991 RMK AO2 SLP144 T01780172
KESC 140956Z AUTO 28003KT 3SM BR CLR 18/17 A2991 RMK AO2 SLP145 T01780172
KESC 140944Z AUTO 26003KT 2SM BR CLR 17/17 A2991 RMK AO2
KESC 140936Z AUTO 27003KT 1 1/2SM BR CLR 18/18 A2991 RMK AO2
KESC 140934Z AUTO 27003KT 3/4SM BR CLR 18/18 A2991 RMK AO2
KESC 140919Z AUTO 25003KT 1/4SM FG CLR 18/17 A2991 RMK AO2
KESC 140910Z AUTO 24003KT 1/2SM FG CLR 18/18 A2991 RMK AO2
KESC 140856Z AUTO 24003KT 1/4SM FG CLR 18/18 A2991 RMK AO2 SLP144 T01780178 56008
KESC 140851Z AUTO 25003KT 1/4SM FG CLR 18/18 A2991 RMK AO2
KESC 140842Z AUTO 25004KT 1/2SM FG CLR 18/18 A2991 RMK AO2
KESC 140837Z AUTO 26004KT 1SM BR CLR 18/18 A2991 RMK AO2 VIS 1/2V2
KESC 140833Z AUTO 27004KT 1/2SM FG CLR 18/18 A2991 RMK AO2
KESC 140807Z AUTO 00000KT 1/4SM FG VV003 17/17 A2992 RMK AO2
KESC 140800Z AUTO 00000KT 1/2SM FG CLR 18/18 A2992 RMK AO2
KESC 140758Z AUTO 00000KT 1 1/4SM BR CLR 19/18 A2992 RMK AO2
KESC 140756Z AUTO 00000KT 3SM BR CLR 19/18 A2992 RMK AO2 SLP146 T01890183
KESC 140748Z AUTO 00000KT 3SM BR CLR 18/18 A2992 RMK AO2
KESC 140738Z AUTO 00000KT 1 3/4SM BR CLR 18/18 A2992 RMK AO2 VIS 3/4V4
KESC 140656Z AUTO 00000KT 5SM BR CLR 19/18 A2994 RMK AO2 SLP151 T01890183
KESC 140556Z AUTO 00000KT 10SM CLR 20/18 A2994 RMK AO2 SLP154 T02000183 10250 20200 58004
KESC 140456Z AUTO 23006KT 10SM CLR 22/18 A2995 RMK AO2 SLP156 T02170183 402830128
KESC 140356Z AUTO 22007KT 10SM CLR 23/19 A2996 RMK AO2 SLP157 T02330194
KESC 140256Z AUTO 20005KT 10SM CLR 23/20 A2996 RMK AO2 SLP158 T02330200 53002
KESC 140156Z AUTO 19006KT 10SM CLR 23/20 A2995 RMK AO2 SLP158 T02330200
KESC 140056Z AUTO 18005KT 10SM CLR 24/21 A2995 RMK AO2 SLP157 T02390211
KESC 132356Z AUTO 18006KT 10SM CLR 26/21 A2995 RMK AO2 SLP159 T02560206 10283 20256 56015
KESC 132256Z AUTO 17007KT 10SM CLR 27/20 A2997 RMK AO2 SLP165 T02670200
KESC 132156Z AUTO 18009KT 10SM CLR 27/21 A2998 RMK AO2 SLP169 T02670211
KESC 132056Z AUTO 17009KT 10SM CLR 27/21 A3000 RMK AO2 SLP175 T02670206 56017
KESC 131956Z AUTO 17009KT 10SM CLR 27/21 A3002 RMK AO2 SLP181 T02670211
KESC 131856Z AUTO 18013KT 10SM CLR 28/18 A3003 RMK AO2 SLP184 T02830183
KESC 131756Z AUTO 17010KT 10SM CLR 26/19 A3005 RMK AO2 SLP192 T02610194 10261 20150 58010
KESC 131656Z AUTO 18007KT 10SM CLR 26/20 A3006 RMK AO2 SLP196 T02560200
KESC 131456Z AUTO 23003KT 10SM CLR 24/19 A3008 RMK AO2 SLP202 T02440194 58010
KESC 131356Z AUTO 23005KT 10SM CLR 22/19 A3009 RMK AO2 SLP206 T02170189
KESC 131256Z AUTO 00000KT 7SM CLR 19/19 A3011 RMK AO2 SLP211 T01940194
KESC 131241Z AUTO 27003KT 4SM BR FEW002 18/18 A3011 RMK AO2
KESC 131232Z AUTO 00000KT 2SM BR SCT002 18/18 A3011 RMK AO2 TSNO
KESC 131230Z AUTO 28003KT 1SM BR VV002 18/18 A3011 RMK AO2 TSNO
KESC 131228Z AUTO 28003KT 3/4SM BR BKN001 18/17 A3011 RMK AO2
KESC 131213Z AUTO 00000KT 1/4SM FG OVC001 16/16 A3011 RMK AO2
KESC 131209Z AUTO 00000KT 3/4SM BR OVC001 16/16 A3011 RMK AO2
KESC 131207Z AUTO 00000KT 1 1/2SM BR OVC001 16/16 A3011 RMK AO2
KESC 131200Z AUTO 4SM BR OVC001 15/15 A3011 RMK AO2 TSNO
KESC 131158Z AUTO 1SM BR OVC001 15/14 A3011 RMK AO2
KESC 131156Z AUTO 1/2SM FG OVC001 15/14 A3011 RMK AO2 SLP215 T01500144 10156 20128 53008 $
KESC 131056Z AUTO M1/4SM FG OVC001 13/13 A3010 RMK AO2 SLP211 T01280128 $
KESC 131048Z AUTO 00000KT 1/2SM FG OVC001 13/13 A3010 RMK AO2
KESC 131039Z AUTO 00000KT 1SM BR OVC001 13/13 A3009 RMK AO2
KESC 131021Z AUTO 00000KT 1/2SM FG OVC001 14/14 A3009 RMK AO2
KESC 130956Z AUTO 00000KT 1/4SM FG OVC001 13/13 A3009 RMK AO2 SLP206 T01330133
KESC 130856Z AUTO 00000KT 1/4SM FG OVC001 14/14 A3010 RMK AO2 SLP212 T01390139 56008
KESC 130851Z AUTO 00000KT 1/4SM FG OVC001 14/14 A3010 RMK AO2
KESC 130848Z AUTO 00000KT 1SM BR OVC001 14/14 A3011 RMK AO2
KESC 130837Z AUTO 00000KT 2SM BR OVC001 14/13 A3011 RMK AO2
KESC 130835Z AUTO 00000KT 3/4SM BR OVC001 14/13 A3011 RMK AO2
KESC 130756Z AUTO 00000KT M1/4SM FG OVC001 15/14 A3011 RMK AO2 SLP214 T01500144
KESC 130711Z AUTO 00000KT 1/4SM FG BKN001 14/14 A3011 RMK AO2
KESC 130703Z AUTO 00000KT 3/4SM BR VV001 14/14 A3011 RMK AO2
KESC 130656Z AUTO 00000KT 3/4SM BR CLR 14/14 A3012 RMK AO2 SLP216 T01390139
KESC 130653Z AUTO 00000KT 3/4SM BR VV002 14/14 A3012 RMK AO2
KESC 130643Z AUTO 00000KT 1SM BR VV001 15/14 A3012 RMK AO2
KESC 130635Z AUTO 00000KT 1 1/4SM BR BKN001 14/14 A3012 RMK AO2
KESC 130633Z AUTO 00000KT 3/4SM BR BKN001 14/14 A3012 RMK AO2
KESC 130626Z AUTO 00000KT 1/4SM FG OVC001 14/14 A3012 RMK AO2
KESC 130620Z AUTO 00000KT 3/4SM BR OVC001 14/14 A3012 RMK AO2
KESC 130617Z AUTO 00000KT 1 1/2SM BR OVC001 14/14 A3012 RMK AO2
KESC 130556Z AUTO 00000KT 4SM BR BKN001 16/15 A3013 RMK AO2 SLP219 T01560150 10228 20150 50003
KESC 130552Z AUTO 00000KT 1SM BR BKN001 16/16 A3013 RMK AO2
KESC 130549Z AUTO 00000KT 1/2SM FG OVC001 16/16 A3013 RMK AO2
KESC 130517Z AUTO 00000KT 1/4SM FG OVC001 16/15 A3013 RMK AO2
KESC 130508Z AUTO 00000KT 3/4SM BR OVC001 15/14 A3013 RMK AO2
KESC 130504Z AUTO 00000KT 1 1/4SM BR OVC001 15/15 A3013 RMK AO2
KESC 130456Z AUTO 00000KT 2SM BR BKN001 16/16 A3013 RMK AO2 SLP221 T01560156 402670128
KESC 130447Z AUTO 00000KT 3SM BR BKN001 16/16 A3013 RMK AO2
KESC 130440Z AUTO 00000KT 4SM BR SCT001 17/16 A3013 RMK AO2
KESC 130432Z AUTO 00000KT 2SM BR SCT001 17/17 A3013 RMK AO2
KESC 130429Z AUTO 00000KT 3/4SM BR VV001 17/16 A3013 RMK AO2